sensor_id;sensor_type;location;lat;lon;timestamp;P1;durP1;ratioP1;P2;durP2;ratioP2
54575;SDS011;40472;53.486;14.542;2022-12-07T00:01:25;12.65;;;5.18;;
54575;SDS011;40472;53.486;14.542;2022-12-07T00:03:53;11.27;;;5.30;;
54575;SDS011;40472;53.486;14.542;2022-12-07T00:06:28;17.00;;;6.57;;
54575;SDS011;40472;53.486;14.542;2022-12-07T00:08:54;15.00;;;6.25;;
54575;SDS011;40472;53.486;14.542;2022-12-07T00:11:20;13.15;;;5.07;;
54575;SDS011;40472;53.486;14.542;2022-12-07T00:13:51;18.38;;;7.07;;
54575;SDS011;40472;53.486;14.542;2022-12-07T00:16:21;12.90;;;5.95;;
54575;SDS011;40472;53.486;14.542;2022-12-07T00:18:49;17.33;;;6.35;;
54575;SDS011;40472;53.486;14.542;2022-12-07T00:21:16;14.95;;;6.45;;
54575;SDS011;40472;53.486;14.542;2022-12-07T00:23:46;18.05;;;6.63;;
54575;SDS011;40472;53.486;14.542;2022-12-07T00:26:17;18.55;;;7.03;;
54575;SDS011;40472;53.486;14.542;2022-12-07T00:28:46;15.05;;;6.45;;
54575;SDS011;40472;53.486;14.542;2022-12-07T00:31:16;15.02;;;5.70;;
54575;SDS011;40472;53.486;14.542;2022-12-07T00:33:43;15.18;;;7.35;;
54575;SDS011;40472;53.486;14.542;2022-12-07T00:36:10;16.80;;;6.85;;
54575;SDS011;40472;53.486;14.542;2022-12-07T00:38:38;15.10;;;7.18;;
54575;SDS011;40472;53.486;14.542;2022-12-07T00:41:09;14.75;;;6.10;;
54575;SDS011;40472;53.486;14.542;2022-12-07T00:43:38;19.55;;;6.00;;
54575;SDS011;40472;53.486;14.542;2022-12-07T00:46:05;15.68;;;7.65;;
54575;SDS011;40472;53.486;14.542;2022-12-07T00:48:31;21.17;;;7.75;;
54575;SDS011;40472;53.486;14.542;2022-12-07T00:50:57;17.08;;;6.60;;
54575;SDS011;40472;53.486;14.542;2022-12-07T00:53:23;17.92;;;8.82;;
54575;SDS011;40472;53.486;14.542;2022-12-07T00:55:50;19.30;;;7.57;;
54575;SDS011;40472;53.486;14.542;2022-12-07T00:58:18;13.65;;;6.57;;
54575;SDS011;40472;53.486;14.542;2022-12-07T01:00:44;19.95;;;8.20;;
54575;SDS011;40472;53.486;14.542;2022-12-07T01:03:10;17.65;;;7.45;;
54575;SDS011;40472;53.486;14.542;2022-12-07T01:05:38;16.05;;;7.97;;
54575;SDS011;40472;53.486;14.542;2022-12-07T01:08:05;14.40;;;5.53;;
54575;SDS011;40472;53.486;14.542;2022-12-07T01:10:32;15.95;;;6.85;;
54575;SDS011;40472;53.486;14.542;2022-12-07T01:12:58;16.00;;;7.10;;
54575;SDS011;40472;53.486;14.542;2022-12-07T01:15:24;24.35;;;9.10;;
54575;SDS011;40472;53.486;14.542;2022-12-07T01:17:53;17.70;;;7.13;;
54575;SDS011;40472;53.486;14.542;2022-12-07T01:20:19;11.95;;;5.03;;
54575;SDS011;40472;53.486;14.542;2022-12-07T01:22:45;13.20;;;5.82;;
54575;SDS011;40472;53.486;14.542;2022-12-07T01:25:12;13.82;;;5.72;;
54575;SDS011;40472;53.486;14.542;2022-12-07T01:27:38;18.65;;;6.20;;
54575;SDS011;40472;53.486;14.542;2022-12-07T01:30:05;14.15;;;6.45;;
54575;SDS011;40472;53.486;14.542;2022-12-07T01:32:32;14.77;;;6.93;;
54575;SDS011;40472;53.486;14.542;2022-12-07T01:34:58;17.27;;;6.38;;
54575;SDS011;40472;53.486;14.542;2022-12-07T01:37:24;23.40;;;8.20;;
54575;SDS011;40472;53.486;14.542;2022-12-07T01:39:50;14.25;;;6.63;;
54575;SDS011;40472;53.486;14.542;2022-12-07T01:42:17;19.40;;;7.05;;
54575;SDS011;40472;53.486;14.542;2022-12-07T01:47:43;13.85;;;6.60;;
54575;SDS011;40472;53.486;14.542;2022-12-07T01:50:15;18.73;;;7.55;;
54575;SDS011;40472;53.486;14.542;2022-12-07T01:52:41;15.50;;;6.40;;
54575;SDS011;40472;53.486;14.542;2022-12-07T01:55:10;10.60;;;4.93;;
54575;SDS011;40472;53.486;14.542;2022-12-07T01:57:40;14.23;;;6.63;;
54575;SDS011;40472;53.486;14.542;2022-12-07T02:00:08;16.90;;;5.72;;
54575;SDS011;40472;53.486;14.542;2022-12-07T02:02:36;12.15;;;5.60;;
54575;SDS011;40472;53.486;14.542;2022-12-07T02:05:09;16.75;;;7.45;;
54575;SDS011;40472;53.486;14.542;2022-12-07T02:07:36;15.05;;;7.30;;
54575;SDS011;40472;53.486;14.542;2022-12-07T02:10:19;12.07;;;4.72;;
54575;SDS011;40472;53.486;14.542;2022-12-07T02:12:57;13.93;;;6.30;;
54575;SDS011;40472;53.486;14.542;2022-12-07T02:15:42;13.77;;;6.20;;
54575;SDS011;40472;53.486;14.542;2022-12-07T02:24:24;9.00;;;5.05;;
54575;SDS011;40472;53.486;14.542;2022-12-07T02:30:10;8.35;;;4.60;;
54575;SDS011;40472;53.486;14.542;2022-12-07T02:35:28;8.68;;;4.93;;
54575;SDS011;40472;53.486;14.542;2022-12-07T02:38:03;12.55;;;5.50;;
54575;SDS011;40472;53.486;14.542;2022-12-07T02:40:44;11.02;;;5.20;;
54575;SDS011;40472;53.486;14.542;2022-12-07T02:43:25;9.05;;;4.72;;
54575;SDS011;40472;53.486;14.542;2022-12-07T02:46:06;9.80;;;4.55;;
54575;SDS011;40472;53.486;14.542;2022-12-07T02:48:36;5.88;;;3.20;;
54575;SDS011;40472;53.486;14.542;2022-12-07T02:51:04;8.45;;;4.35;;
54575;SDS011;40472;53.486;14.542;2022-12-07T02:53:40;15.00;;;5.32;;
54575;SDS011;40472;53.486;14.542;2022-12-07T03:04:17;10.48;;;4.45;;
54575;SDS011;40472;53.486;14.542;2022-12-07T03:06:52;8.50;;;4.90;;
54575;SDS011;40472;53.486;14.542;2022-12-07T03:09:43;9.70;;;4.57;;
54575;SDS011;40472;53.486;14.542;2022-12-07T03:12:20;11.20;;;4.88;;
54575;SDS011;40472;53.486;14.542;2022-12-07T03:14:55;9.90;;;4.80;;
54575;SDS011;40472;53.486;14.542;2022-12-07T03:17:26;9.82;;;5.28;;
54575;SDS011;40472;53.486;14.542;2022-12-07T03:19:58;15.27;;;6.35;;
54575;SDS011;40472;53.486;14.542;2022-12-07T03:22:25;8.75;;;4.28;;
54575;SDS011;40472;53.486;14.542;2022-12-07T03:25:01;7.85;;;3.53;;
54575;SDS011;40472;53.486;14.542;2022-12-07T03:27:39;14.52;;;5.45;;
54575;SDS011;40472;53.486;14.542;2022-12-07T03:33:36;11.85;;;5.05;;
54575;SDS011;40472;53.486;14.542;2022-12-07T03:41:26;5.82;;;2.72;;
54575;SDS011;40472;53.486;14.542;2022-12-07T03:43:54;9.20;;;4.32;;
54575;SDS011;40472;53.486;14.542;2022-12-07T03:46:34;6.53;;;3.40;;
54575;SDS011;40472;53.486;14.542;2022-12-07T03:49:21;10.43;;;5.57;;
54575;SDS011;40472;53.486;14.542;2022-12-07T03:56:54;9.27;;;4.75;;
54575;SDS011;40472;53.486;14.542;2022-12-07T03:59:21;9.00;;;5.20;;
54575;SDS011;40472;53.486;14.542;2022-12-07T04:01:52;3.08;;;2.33;;
54575;SDS011;40472;53.486;14.542;2022-12-07T04:04:19;13.23;;;2.75;;
54575;SDS011;40472;53.486;14.542;2022-12-07T04:06:46;8.68;;;4.85;;
54575;SDS011;40472;53.486;14.542;2022-12-07T04:09:12;4.93;;;2.83;;
54575;SDS011;40472;53.486;14.542;2022-12-07T04:11:39;9.18;;;3.30;;
54575;SDS011;40472;53.486;14.542;2022-12-07T04:14:05;16.77;;;6.45;;
54575;SDS011;40472;53.486;14.542;2022-12-07T04:16:43;7.65;;;4.40;;
54575;SDS011;40472;53.486;14.542;2022-12-07T04:19:13;8.13;;;4.28;;
54575;SDS011;40472;53.486;14.542;2022-12-07T04:21:39;8.90;;;4.57;;
54575;SDS011;40472;53.486;14.542;2022-12-07T04:24:05;5.28;;;3.40;;
54575;SDS011;40472;53.486;14.542;2022-12-07T04:26:42;14.75;;;6.75;;
54575;SDS011;40472;53.486;14.542;2022-12-07T04:29:09;13.57;;;6.68;;
54575;SDS011;40472;53.486;14.542;2022-12-07T04:31:35;10.60;;;4.97;;
54575;SDS011;40472;53.486;14.542;2022-12-07T04:34:02;14.73;;;6.32;;
54575;SDS011;40472;53.486;14.542;2022-12-07T04:36:28;6.90;;;3.45;;
54575;SDS011;40472;53.486;14.542;2022-12-07T04:38:54;16.52;;;6.50;;
54575;SDS011;40472;53.486;14.542;2022-12-07T04:41:21;13.30;;;6.00;;
54575;SDS011;40472;53.486;14.542;2022-12-07T04:43:56;12.20;;;3.97;;
54575;SDS011;40472;53.486;14.542;2022-12-07T04:46:24;19.35;;;7.15;;
54575;SDS011;40472;53.486;14.542;2022-12-07T04:48:51;15.68;;;6.22;;
54575;SDS011;40472;53.486;14.542;2022-12-07T04:51:19;13.02;;;4.95;;
54575;SDS011;40472;53.486;14.542;2022-12-07T04:53:46;13.50;;;6.13;;
54575;SDS011;40472;53.486;14.542;2022-12-07T04:56:13;14.73;;;6.45;;
54575;SDS011;40472;53.486;14.542;2022-12-07T04:58:40;14.98;;;5.88;;
54575;SDS011;40472;53.486;14.542;2022-12-07T05:01:06;9.57;;;4.78;;
54575;SDS011;40472;53.486;14.542;2022-12-07T05:03:32;11.85;;;5.93;;
54575;SDS011;40472;53.486;14.542;2022-12-07T05:05:58;21.98;;;8.85;;
54575;SDS011;40472;53.486;14.542;2022-12-07T05:08:24;9.55;;;5.15;;
54575;SDS011;40472;53.486;14.542;2022-12-07T05:10:49;7.55;;;3.75;;
54575;SDS011;40472;53.486;14.542;2022-12-07T05:13:15;16.45;;;7.15;;
54575;SDS011;40472;53.486;14.542;2022-12-07T05:15:41;15.98;;;7.60;;
54575;SDS011;40472;53.486;14.542;2022-12-07T05:18:09;16.08;;;8.18;;
54575;SDS011;40472;53.486;14.542;2022-12-07T05:20:37;17.10;;;8.02;;
54575;SDS011;40472;53.486;14.542;2022-12-07T05:23:05;5.00;;;2.85;;
54575;SDS011;40472;53.486;14.542;2022-12-07T05:25:32;17.75;;;7.90;;
54575;SDS011;40472;53.486;14.542;2022-12-07T05:28:01;3.45;;;2.45;;
54575;SDS011;40472;53.486;14.542;2022-12-07T05:30:27;13.93;;;6.60;;
54575;SDS011;40472;53.486;14.542;2022-12-07T05:32:53;16.15;;;8.48;;
54575;SDS011;40472;53.486;14.542;2022-12-07T05:35:19;7.45;;;4.88;;
54575;SDS011;40472;53.486;14.542;2022-12-07T05:37:46;22.00;;;8.27;;
54575;SDS011;40472;53.486;14.542;2022-12-07T05:40:13;14.60;;;6.40;;
54575;SDS011;40472;53.486;14.542;2022-12-07T05:42:44;14.25;;;7.68;;
54575;SDS011;40472;53.486;14.542;2022-12-07T05:45:10;17.55;;;6.45;;
54575;SDS011;40472;53.486;14.542;2022-12-07T05:47:37;10.50;;;4.30;;
54575;SDS011;40472;53.486;14.542;2022-12-07T05:50:03;25.25;;;8.18;;
54575;SDS011;40472;53.486;14.542;2022-12-07T05:52:30;24.05;;;7.75;;
54575;SDS011;40472;53.486;14.542;2022-12-07T05:54:56;16.90;;;7.78;;
54575;SDS011;40472;53.486;14.542;2022-12-07T05:57:21;10.20;;;5.45;;
54575;SDS011;40472;53.486;14.542;2022-12-07T05:59:47;22.20;;;10.27;;
54575;SDS011;40472;53.486;14.542;2022-12-07T06:02:13;16.98;;;7.72;;
54575;SDS011;40472;53.486;14.542;2022-12-07T06:04:43;16.58;;;7.65;;
54575;SDS011;40472;53.486;14.542;2022-12-07T06:07:11;17.20;;;7.57;;
54575;SDS011;40472;53.486;14.542;2022-12-07T06:09:38;22.42;;;9.57;;
54575;SDS011;40472;53.486;14.542;2022-12-07T06:12:04;14.07;;;6.22;;
54575;SDS011;40472;53.486;14.542;2022-12-07T06:14:49;14.25;;;6.10;;
54575;SDS011;40472;53.486;14.542;2022-12-07T06:17:15;15.98;;;6.63;;
54575;SDS011;40472;53.486;14.542;2022-12-07T06:19:43;20.00;;;7.13;;
54575;SDS011;40472;53.486;14.542;2022-12-07T06:22:09;17.48;;;5.63;;
54575;SDS011;40472;53.486;14.542;2022-12-07T06:24:36;16.40;;;7.35;;
54575;SDS011;40472;53.486;14.542;2022-12-07T06:27:03;14.65;;;7.15;;
54575;SDS011;40472;53.486;14.542;2022-12-07T06:29:29;18.75;;;7.53;;
54575;SDS011;40472;53.486;14.542;2022-12-07T06:31:55;20.15;;;6.85;;
54575;SDS011;40472;53.486;14.542;2022-12-07T06:34:21;15.15;;;7.70;;
54575;SDS011;40472;53.486;14.542;2022-12-07T06:36:48;20.23;;;7.88;;
54575;SDS011;40472;53.486;14.542;2022-12-07T06:39:21;21.52;;;8.10;;
54575;SDS011;40472;53.486;14.542;2022-12-07T06:41:48;16.45;;;7.28;;
54575;SDS011;40472;53.486;14.542;2022-12-07T06:44:20;26.52;;;9.00;;
54575;SDS011;40472;53.486;14.542;2022-12-07T06:46:52;20.45;;;7.97;;
54575;SDS011;40472;53.486;14.542;2022-12-07T06:49:19;21.10;;;8.80;;
54575;SDS011;40472;53.486;14.542;2022-12-07T06:51:45;17.95;;;6.82;;
54575;SDS011;40472;53.486;14.542;2022-12-07T06:54:12;27.17;;;8.55;;
54575;SDS011;40472;53.486;14.542;2022-12-07T06:56:39;11.25;;;5.57;;
54575;SDS011;40472;53.486;14.542;2022-12-07T06:59:05;15.55;;;6.50;;
54575;SDS011;40472;53.486;14.542;2022-12-07T07:01:32;28.13;;;8.32;;
54575;SDS011;40472;53.486;14.542;2022-12-07T07:03:59;31.38;;;7.88;;
54575;SDS011;40472;53.486;14.542;2022-12-07T07:06:25;22.80;;;8.75;;
54575;SDS011;40472;53.486;14.542;2022-12-07T07:08:53;23.25;;;7.97;;
54575;SDS011;40472;53.486;14.542;2022-12-07T07:11:19;16.67;;;7.38;;
54575;SDS011;40472;53.486;14.542;2022-12-07T07:13:45;23.45;;;7.43;;
54575;SDS011;40472;53.486;14.542;2022-12-07T07:16:12;23.27;;;7.15;;
54575;SDS011;40472;53.486;14.542;2022-12-07T07:18:38;26.77;;;6.18;;
54575;SDS011;40472;53.486;14.542;2022-12-07T07:21:04;8.00;;;3.40;;
54575;SDS011;40472;53.486;14.542;2022-12-07T07:23:30;11.77;;;3.95;;
54575;SDS011;40472;53.486;14.542;2022-12-07T07:25:56;63.08;;;7.45;;
54575;SDS011;40472;53.486;14.542;2022-12-07T07:28:22;63.97;;;7.03;;
54575;SDS011;40472;53.486;14.542;2022-12-07T07:30:47;19.58;;;5.32;;
54575;SDS011;40472;53.486;14.542;2022-12-07T07:33:14;53.20;;;8.13;;
54575;SDS011;40472;53.486;14.542;2022-12-07T07:35:40;26.80;;;7.30;;
54575;SDS011;40472;53.486;14.542;2022-12-07T07:38:06;58.38;;;8.70;;
54575;SDS011;40472;53.486;14.542;2022-12-07T07:40:32;59.20;;;6.97;;
54575;SDS011;40472;53.486;14.542;2022-12-07T07:42:58;51.55;;;7.35;;
54575;SDS011;40472;53.486;14.542;2022-12-07T07:45:24;64.32;;;8.63;;
54575;SDS011;40472;53.486;14.542;2022-12-07T07:47:51;27.77;;;8.40;;
54575;SDS011;40472;53.486;14.542;2022-12-07T07:50:17;73.93;;;8.98;;
54575;SDS011;40472;53.486;14.542;2022-12-07T07:52:43;42.58;;;6.05;;
54575;SDS011;40472;53.486;14.542;2022-12-07T07:55:09;77.30;;;9.65;;
54575;SDS011;40472;53.486;14.542;2022-12-07T07:57:36;47.90;;;6.45;;
54575;SDS011;40472;53.486;14.542;2022-12-07T08:00:03;62.65;;;6.63;;
54575;SDS011;40472;53.486;14.542;2022-12-07T08:02:32;69.68;;;7.53;;
54575;SDS011;40472;53.486;14.542;2022-12-07T08:04:58;82.65;;;7.57;;
54575;SDS011;40472;53.486;14.542;2022-12-07T08:07:24;37.85;;;5.15;;
54575;SDS011;40472;53.486;14.542;2022-12-07T08:09:49;85.97;;;11.57;;
54575;SDS011;40472;53.486;14.542;2022-12-07T08:12:15;56.30;;;7.72;;
54575;SDS011;40472;53.486;14.542;2022-12-07T08:14:41;99.10;;;8.60;;
54575;SDS011;40472;53.486;14.542;2022-12-07T08:17:07;56.45;;;5.85;;
54575;SDS011;40472;53.486;14.542;2022-12-07T08:19:33;54.50;;;6.32;;
54575;SDS011;40472;53.486;14.542;2022-12-07T08:21:59;70.88;;;6.00;;
54575;SDS011;40472;53.486;14.542;2022-12-07T08:24:25;28.20;;;5.60;;
54575;SDS011;40472;53.486;14.542;2022-12-07T08:26:51;38.85;;;6.68;;
54575;SDS011;40472;53.486;14.542;2022-12-07T08:29:18;17.58;;;6.82;;
54575;SDS011;40472;53.486;14.542;2022-12-07T08:31:44;37.55;;;8.38;;
54575;SDS011;40472;53.486;14.542;2022-12-07T08:34:10;31.20;;;6.85;;
54575;SDS011;40472;53.486;14.542;2022-12-07T08:36:36;45.05;;;9.93;;
54575;SDS011;40472;53.486;14.542;2022-12-07T08:39:02;18.55;;;9.10;;
54575;SDS011;40472;53.486;14.542;2022-12-07T08:41:28;33.63;;;15.23;;
54575;SDS011;40472;53.486;14.542;2022-12-07T08:43:54;33.83;;;8.57;;
54575;SDS011;40472;53.486;14.542;2022-12-07T08:48:56;30.58;;;7.20;;
54575;SDS011;40472;53.486;14.542;2022-12-07T08:51:26;29.27;;;7.43;;
54575;SDS011;40472;53.486;14.542;2022-12-07T08:53:52;33.83;;;14.95;;
54575;SDS011;40472;53.486;14.542;2022-12-07T08:56:20;38.33;;;6.60;;
54575;SDS011;40472;53.486;14.542;2022-12-07T08:58:46;57.83;;;7.35;;
54575;SDS011;40472;53.486;14.542;2022-12-07T09:01:13;14.00;;;6.05;;
54575;SDS011;40472;53.486;14.542;2022-12-07T09:03:39;31.10;;;6.47;;
54575;SDS011;40472;53.486;14.542;2022-12-07T09:06:05;18.17;;;6.10;;
54575;SDS011;40472;53.486;14.542;2022-12-07T09:08:33;13.75;;;4.90;;
54575;SDS011;40472;53.486;14.542;2022-12-07T09:11:02;19.33;;;5.47;;
54575;SDS011;40472;53.486;14.542;2022-12-07T09:13:28;16.08;;;7.30;;
54575;SDS011;40472;53.486;14.542;2022-12-07T09:15:54;14.05;;;5.47;;
54575;SDS011;40472;53.486;14.542;2022-12-07T09:18:19;10.43;;;4.07;;
54575;SDS011;40472;53.486;14.542;2022-12-07T09:20:45;15.73;;;6.75;;
54575;SDS011;40472;53.486;14.542;2022-12-07T09:23:11;16.05;;;5.75;;
54575;SDS011;40472;53.486;14.542;2022-12-07T09:25:37;15.68;;;5.60;;
54575;SDS011;40472;53.486;14.542;2022-12-07T09:28:09;15.00;;;5.70;;
54575;SDS011;40472;53.486;14.542;2022-12-07T09:31:04;13.23;;;5.22;;
54575;SDS011;40472;53.486;14.542;2022-12-07T09:33:31;10.88;;;5.07;;
54575;SDS011;40472;53.486;14.542;2022-12-07T09:35:57;15.68;;;5.20;;
54575;SDS011;40472;53.486;14.542;2022-12-07T09:38:23;12.32;;;5.57;;
54575;SDS011;40472;53.486;14.542;2022-12-07T09:40:51;24.17;;;6.22;;
54575;SDS011;40472;53.486;14.542;2022-12-07T09:43:21;17.38;;;7.20;;
54575;SDS011;40472;53.486;14.542;2022-12-07T09:45:50;10.30;;;5.25;;
54575;SDS011;40472;53.486;14.542;2022-12-07T09:48:40;12.63;;;6.10;;
54575;SDS011;40472;53.486;14.542;2022-12-07T09:51:18;14.63;;;5.80;;
54575;SDS011;40472;53.486;14.542;2022-12-07T09:53:45;9.35;;;5.72;;
54575;SDS011;40472;53.486;14.542;2022-12-07T09:56:13;12.65;;;5.75;;
54575;SDS011;40472;53.486;14.542;2022-12-07T09:58:41;14.07;;;5.35;;
54575;SDS011;40472;53.486;14.542;2022-12-07T10:03:37;13.98;;;5.75;;
54575;SDS011;40472;53.486;14.542;2022-12-07T10:06:05;6.78;;;3.72;;
54575;SDS011;40472;53.486;14.542;2022-12-07T10:08:32;9.98;;;5.60;;
54575;SDS011;40472;53.486;14.542;2022-12-07T10:11:01;14.88;;;6.85;;
54575;SDS011;40472;53.486;14.542;2022-12-07T10:13:39;10.00;;;5.63;;
54575;SDS011;40472;53.486;14.542;2022-12-07T10:16:26;16.70;;;6.15;;
54575;SDS011;40472;53.486;14.542;2022-12-07T10:18:57;10.20;;;5.47;;
54575;SDS011;40472;53.486;14.542;2022-12-07T10:21:58;10.27;;;5.22;;
54575;SDS011;40472;53.486;14.542;2022-12-07T10:24:26;39.45;;;23.20;;
54575;SDS011;40472;53.486;14.542;2022-12-07T10:26:52;23.15;;;8.40;;
54575;SDS011;40472;53.486;14.542;2022-12-07T10:34:46;11.88;;;5.47;;
54575;SDS011;40472;53.486;14.542;2022-12-07T10:39:54;14.48;;;5.43;;
54575;SDS011;40472;53.486;14.542;2022-12-07T10:47:54;7.93;;;4.55;;
54575;SDS011;40472;53.486;14.542;2022-12-07T10:56:39;9.20;;;5.35;;
54575;SDS011;40472;53.486;14.542;2022-12-07T11:01:53;21.60;;;7.32;;
54575;SDS011;40472;53.486;14.542;2022-12-07T11:05:05;11.48;;;5.40;;
54575;SDS011;40472;53.486;14.542;2022-12-07T11:07:45;11.45;;;5.00;;
54575;SDS011;40472;53.486;14.542;2022-12-07T11:21:55;14.50;;;8.07;;
54575;SDS011;40472;53.486;14.542;2022-12-07T11:30:17;20.10;;;8.25;;
54575;SDS011;40472;53.486;14.542;2022-12-07T11:37:51;19.20;;;9.15;;
54575;SDS011;40472;53.486;14.542;2022-12-07T11:40:31;19.10;;;6.00;;
54575;SDS011;40472;53.486;14.542;2022-12-07T11:43:03;16.17;;;7.65;;
54575;SDS011;40472;53.486;14.542;2022-12-07T11:46:15;22.35;;;11.52;;
54575;SDS011;40472;53.486;14.542;2022-12-07T11:51:42;10.48;;;5.85;;
54575;SDS011;40472;53.486;14.542;2022-12-07T11:54:33;12.68;;;7.15;;
54575;SDS011;40472;53.486;14.542;2022-12-07T11:57:07;9.18;;;5.03;;
54575;SDS011;40472;53.486;14.542;2022-12-07T11:59:45;15.65;;;6.13;;
54575;SDS011;40472;53.486;14.542;2022-12-07T12:02:31;16.95;;;5.88;;
54575;SDS011;40472;53.486;14.542;2022-12-07T12:05:16;14.13;;;5.78;;
54575;SDS011;40472;53.486;14.542;2022-12-07T12:07:48;12.90;;;6.05;;
54575;SDS011;40472;53.486;14.542;2022-12-07T12:13:23;18.77;;;9.07;;
54575;SDS011;40472;53.486;14.542;2022-12-07T12:16:09;12.93;;;6.07;;
54575;SDS011;40472;53.486;14.542;2022-12-07T12:21:27;12.48;;;6.50;;
54575;SDS011;40472;53.486;14.542;2022-12-07T12:23:56;23.08;;;10.35;;
54575;SDS011;40472;53.486;14.542;2022-12-07T12:26:29;11.23;;;5.85;;
54575;SDS011;40472;53.486;14.542;2022-12-07T12:31:36;14.10;;;6.10;;
54575;SDS011;40472;53.486;14.542;2022-12-07T12:34:29;15.90;;;4.75;;
54575;SDS011;40472;53.486;14.542;2022-12-07T12:42:45;5.95;;;3.55;;
54575;SDS011;40472;53.486;14.542;2022-12-07T12:45:22;6.70;;;3.78;;
54575;SDS011;40472;53.486;14.542;2022-12-07T12:50:23;8.27;;;4.32;;
54575;SDS011;40472;53.486;14.542;2022-12-07T12:52:53;6.65;;;3.55;;
54575;SDS011;40472;53.486;14.542;2022-12-07T12:58:41;6.20;;;2.55;;
54575;SDS011;40472;53.486;14.542;2022-12-07T13:04:17;6.82;;;1.95;;
54575;SDS011;40472;53.486;14.542;2022-12-07T13:06:53;2.55;;;1.80;;
54575;SDS011;40472;53.486;14.542;2022-12-07T13:09:24;4.95;;;2.70;;
54575;SDS011;40472;53.486;14.542;2022-12-07T13:11:58;3.22;;;2.17;;
54575;SDS011;40472;53.486;14.542;2022-12-07T13:14:57;4.57;;;2.03;;
54575;SDS011;40472;53.486;14.542;2022-12-07T13:20:07;3.28;;;2.20;;
54575;SDS011;40472;53.486;14.542;2022-12-07T13:22:38;6.40;;;3.45;;
54575;SDS011;40472;53.486;14.542;2022-12-07T13:30:42;6.18;;;3.10;;
54575;SDS011;40472;53.486;14.542;2022-12-07T13:33:14;10.48;;;3.97;;
54575;SDS011;40472;53.486;14.542;2022-12-07T13:35:43;4.85;;;2.35;;
54575;SDS011;40472;53.486;14.542;2022-12-07T13:38:30;9.20;;;3.55;;
54575;SDS011;40472;53.486;14.542;2022-12-07T13:43:26;5.15;;;2.45;;
54575;SDS011;40472;53.486;14.542;2022-12-07T13:45:56;5.60;;;2.88;;
54575;SDS011;40472;53.486;14.542;2022-12-07T13:48:43;4.20;;;1.83;;
54575;SDS011;40472;53.486;14.542;2022-12-07T13:51:20;9.75;;;2.50;;
54575;SDS011;40472;53.486;14.542;2022-12-07T13:53:59;3.70;;;1.80;;
54575;SDS011;40472;53.486;14.542;2022-12-07T13:56:33;2.72;;;1.40;;
54575;SDS011;40472;53.486;14.542;2022-12-07T13:59:02;2.38;;;1.58;;
54575;SDS011;40472;53.486;14.542;2022-12-07T14:01:30;4.18;;;2.70;;
54575;SDS011;40472;53.486;14.542;2022-12-07T14:10:03;3.15;;;1.65;;
54575;SDS011;40472;53.486;14.542;2022-12-07T14:12:31;3.33;;;1.58;;
54575;SDS011;40472;53.486;14.542;2022-12-07T14:15:00;2.40;;;1.15;;
54575;SDS011;40472;53.486;14.542;2022-12-07T14:17:28;7.43;;;1.60;;
54575;SDS011;40472;53.486;14.542;2022-12-07T14:19:55;2.67;;;1.58;;
54575;SDS011;40472;53.486;14.542;2022-12-07T14:25:09;8.85;;;2.13;;
54575;SDS011;40472;53.486;14.542;2022-12-07T14:27:48;3.63;;;2.25;;
54575;SDS011;40472;53.486;14.542;2022-12-07T14:30:20;5.05;;;1.70;;
54575;SDS011;40472;53.486;14.542;2022-12-07T14:32:47;3.42;;;2.22;;
54575;SDS011;40472;53.486;14.542;2022-12-07T14:35:19;6.40;;;2.90;;
54575;SDS011;40472;53.486;14.542;2022-12-07T14:37:46;2.92;;;1.98;;
54575;SDS011;40472;53.486;14.542;2022-12-07T14:40:17;4.47;;;1.52;;
54575;SDS011;40472;53.486;14.542;2022-12-07T14:43:02;1.95;;;1.33;;
54575;SDS011;40472;53.486;14.542;2022-12-07T14:45:31;2.90;;;1.35;;
54575;SDS011;40472;53.486;14.542;2022-12-07T14:47:57;5.45;;;1.60;;
54575;SDS011;40472;53.486;14.542;2022-12-07T14:50:33;6.40;;;1.75;;
54575;SDS011;40472;53.486;14.542;2022-12-07T14:53:02;1.90;;;1.35;;
54575;SDS011;40472;53.486;14.542;2022-12-07T14:55:37;3.42;;;1.60;;
54575;SDS011;40472;53.486;14.542;2022-12-07T14:58:02;3.53;;;1.92;;
54575;SDS011;40472;53.486;14.542;2022-12-07T15:00:28;3.75;;;1.70;;
54575;SDS011;40472;53.486;14.542;2022-12-07T15:02:55;6.43;;;2.17;;
54575;SDS011;40472;53.486;14.542;2022-12-07T15:05:21;2.47;;;1.48;;
54575;SDS011;40472;53.486;14.542;2022-12-07T15:07:48;5.20;;;1.55;;
54575;SDS011;40472;53.486;14.542;2022-12-07T15:10:16;2.65;;;1.67;;
54575;SDS011;40472;53.486;14.542;2022-12-07T15:12:45;6.18;;;1.65;;
54575;SDS011;40472;53.486;14.542;2022-12-07T15:15:11;3.00;;;1.73;;
54575;SDS011;40472;53.486;14.542;2022-12-07T15:17:37;3.60;;;1.60;;
54575;SDS011;40472;53.486;14.542;2022-12-07T15:20:03;2.80;;;2.08;;
54575;SDS011;40472;53.486;14.542;2022-12-07T15:22:29;3.10;;;2.28;;
54575;SDS011;40472;53.486;14.542;2022-12-07T15:24:56;4.47;;;1.98;;
54575;SDS011;40472;53.486;14.542;2022-12-07T15:27:23;3.78;;;1.90;;
54575;SDS011;40472;53.486;14.542;2022-12-07T15:29:48;2.33;;;1.75;;
54575;SDS011;40472;53.486;14.542;2022-12-07T15:32:14;7.13;;;2.67;;
54575;SDS011;40472;53.486;14.542;2022-12-07T15:34:40;2.47;;;1.60;;
54575;SDS011;40472;53.486;14.542;2022-12-07T15:37:06;3.40;;;2.33;;
54575;SDS011;40472;53.486;14.542;2022-12-07T15:39:33;3.30;;;1.45;;
54575;SDS011;40472;53.486;14.542;2022-12-07T15:41:59;2.58;;;1.48;;
54575;SDS011;40472;53.486;14.542;2022-12-07T15:44:25;3.28;;;2.20;;
54575;SDS011;40472;53.486;14.542;2022-12-07T15:47:09;5.90;;;2.13;;
54575;SDS011;40472;53.486;14.542;2022-12-07T15:49:35;3.63;;;1.67;;
54575;SDS011;40472;53.486;14.542;2022-12-07T15:52:00;3.20;;;1.75;;
54575;SDS011;40472;53.486;14.542;2022-12-07T15:54:27;9.38;;;2.50;;
54575;SDS011;40472;53.486;14.542;2022-12-07T15:56:55;8.68;;;1.70;;
54575;SDS011;40472;53.486;14.542;2022-12-07T15:59:21;6.38;;;1.23;;
54575;SDS011;40472;53.486;14.542;2022-12-07T16:01:47;4.82;;;1.33;;
54575;SDS011;40472;53.486;14.542;2022-12-07T16:04:13;4.68;;;1.42;;
54575;SDS011;40472;53.486;14.542;2022-12-07T16:06:39;2.60;;;1.15;;
54575;SDS011;40472;53.486;14.542;2022-12-07T16:09:05;2.50;;;1.30;;
54575;SDS011;40472;53.486;14.542;2022-12-07T16:11:31;2.67;;;1.50;;
54575;SDS011;40472;53.486;14.542;2022-12-07T16:13:57;7.90;;;1.52;;
54575;SDS011;40472;53.486;14.542;2022-12-07T16:16:24;4.43;;;1.50;;
54575;SDS011;40472;53.486;14.542;2022-12-07T16:18:51;6.05;;;1.83;;
54575;SDS011;40472;53.486;14.542;2022-12-07T16:21:19;6.10;;;1.42;;
54575;SDS011;40472;53.486;14.542;2022-12-07T16:23:48;2.00;;;1.27;;
54575;SDS011;40472;53.486;14.542;2022-12-07T16:26:16;2.72;;;1.42;;
54575;SDS011;40472;53.486;14.542;2022-12-07T16:28:43;2.55;;;1.30;;
54575;SDS011;40472;53.486;14.542;2022-12-07T16:31:12;6.97;;;1.38;;
54575;SDS011;40472;53.486;14.542;2022-12-07T16:33:40;4.20;;;1.40;;
54575;SDS011;40472;53.486;14.542;2022-12-07T16:36:09;3.22;;;0.93;;
54575;SDS011;40472;53.486;14.542;2022-12-07T16:38:39;0.82;;;0.60;;
54575;SDS011;40472;53.486;14.542;2022-12-07T16:41:05;1.30;;;0.70;;
54575;SDS011;40472;53.486;14.542;2022-12-07T16:43:32;4.20;;;1.40;;
54575;SDS011;40472;53.486;14.542;2022-12-07T16:45:58;3.97;;;1.20;;
54575;SDS011;40472;53.486;14.542;2022-12-07T16:48:26;2.45;;;1.13;;
54575;SDS011;40472;53.486;14.542;2022-12-07T16:50:53;6.45;;;1.15;;
54575;SDS011;40472;53.486;14.542;2022-12-07T16:53:19;6.13;;;2.60;;